Florida, Indiana
Current Conditions -  °F | °C
As of 2:53 AM on Saturday 29 Nov 2014 (Local Time) from KHUF Reporting Station
Clear Clear  
Wind Chill: 27°   Ceiling: Unl
Heat Index: 33°   Visibility: 10mi
Dew Point: 25°   Wind: 7mph
Humidity: 72%   Direction: 170°S
Pressure: 29.96"   Gusts: NA
Location:  39.6386°N, 87.3045°W
Report Text: KHUF 290753Z 17006KT 10SM CLR 01/M04 A2996 RMK AO2 SLP148 T00061039
Loading
Personal Weather Stations






























Interactive Weather Map New forecast layout! Learn more

10-Day Weather Forecast

Advertisements
Track Severe Weather on mobile